^^
Your Local Weather - Clay, NY Station Historical Data
Daily Summary for January 10, 2018 Units:  English    Metric   Both
« Previous Day
Next Day »
Daily Weekly Monthly Yearly Custom
  High: Low: Average:
Temperature: 40.8 °F 38.4 °F 39.6 °F
Dew Point: 31.4 °F 29.6 °F 30.4 °F
Humidity: 75% 66% 70%
Wind Speed: 6.0mph 2.0mph 4.2mph
Wind Gust: 11.0mph - -
Wind- - SSE
Pressure: 30.16 in 30.13 in -
Precipitation: 0.24 in    
Historical Graphs
 
 
Tabular Data for January 10, 2018
Time Temperature Dew Point Pressure Wind Wind Speed Wind Gust Humidity Rainfall Rate (Hourly) solar
19:19 39.3 °F 30.3 °F 30.15 in SE 5.0 mph 11.0 mph 70% 0.00 in 0 W/m2
19:26 38.7 °F 30.8 °F 30.15 in SE 5.0 mph 11.0 mph 73% 0.00 in 0 W/m2
19:32 38.4 °F 31.2 °F 30.16 in SE 4.0 mph 4.0 mph 75% 0.00 in 0 W/m2
19:50 38.4 °F 31.2 °F 30.15 in SSE 3.0 mph 4.0 mph 75% 0.00 in 0 W/m2
19:56 38.5 °F 30.9 °F 30.15 in SE 4.0 mph 6.0 mph 74% 0.00 in 0 W/m2
20:04 38.8 °F 31.2 °F 30.15 in SSE 5.0 mph 6.0 mph 74% 0.00 in 0 W/m2
20:08 38.9 °F 31.0 °F 30.16 in ESE 6.0 mph 6.0 mph 73% 0.00 in 0 W/m2
20:09 38.9 °F 31.0 °F 30.16 in SSE 5.0 mph 5.0 mph 73% 0.00 in 0 W/m2
20:22 38.9 °F 30.6 °F 30.15 in SE 6.0 mph 7.0 mph 72% 0.00 in 0 W/m2
20:28 38.9 °F 30.6 °F 30.15 in South 5.0 mph 7.0 mph 72% 0.00 in 0 W/m2
20:34 39.0 °F 30.4 °F 30.15 in ESE 5.0 mph 8.0 mph 71% 0.00 in 0 W/m2
20:54 39.3 °F 30.0 °F 30.14 in SSE 6.0 mph 10.0 mph 69% 0.00 in 0 W/m2
21:06 39.5 °F 29.8 °F 30.15 in SSE 5.0 mph 7.0 mph 68% 0.00 in 0 W/m2
21:12 39.7 °F 30.0 °F 30.14 in SSE 5.0 mph 5.0 mph 68% 0.00 in 0 W/m2
21:18 39.4 °F 30.4 °F 30.14 in East 3.0 mph 5.0 mph 70% 0.00 in 0 W/m2
21:24 39.2 °F 30.6 °F 30.14 in SSE 2.0 mph 3.0 mph 71% 0.00 in 0 W/m2
21:30 39.3 °F 30.7 °F 30.14 in SSE 3.0 mph 3.0 mph 71% 0.00 in 0 W/m2
21:35 39.4 °F 30.4 °F 30.15 in SSE 3.0 mph 4.0 mph 70% 0.00 in 0 W/m2
21:42 39.2 °F 30.9 °F 30.15 in East 3.0 mph 3.0 mph 72% 0.00 in 0 W/m2
21:48 38.6 °F 31.4 °F 30.14 in SE 2.0 mph 3.0 mph 75% 0.00 in 0 W/m2
21:53 38.7 °F 31.1 °F 30.13 in SSE 3.0 mph 5.0 mph 74% 0.00 in 0 W/m2
21:59 39.1 °F 31.2 °F 30.14 in SE 4.0 mph 4.0 mph 73% 0.00 in 0 W/m2
22:06 39.4 °F 30.8 °F 30.15 in SE 4.0 mph 6.0 mph 71% 0.00 in 0 W/m2
22:12 40.2 °F 30.8 °F 30.15 in South 5.0 mph 5.0 mph 69% 0.00 in 0 W/m2
22:18 40.6 °F 30.5 °F 30.14 in SSE 6.0 mph 7.0 mph 67% 0.00 in 0 W/m2
22:32 40.8 °F 30.3 °F 30.14 in SSE 6.0 mph 6.0 mph 66% 0.00 in 0 W/m2
22:40 40.8 °F 30.3 °F 30.14 in SE 6.0 mph 6.0 mph 66% 0.00 in 0 W/m2
22:48 40.5 °F 30.0 °F 30.14 in SE 6.0 mph 7.0 mph 66% 0.00 in 0 W/m2
22:54 40.5 °F 30.0 °F 30.14 in SSE 5.0 mph 7.0 mph 66% 0.00 in 0 W/m2
23:02 40.3 °F 29.8 °F 30.14 in SSE 4.0 mph 5.0 mph 66% 0.00 in 0 W/m2
23:08 40.2 °F 29.7 °F 30.14 in SSE 4.0 mph 6.0 mph 66% 0.00 in 0 W/m2
23:15 40.0 °F 29.6 °F 30.13 in SSE 3.0 mph 4.0 mph 66% 0.00 in 0 W/m2
23:22 40.1 °F 29.6 °F 30.14 in SSE 4.0 mph 5.0 mph 66% 0.00 in 0 W/m2
23:28 40.2 °F 29.7 °F 30.13 in SSE 4.0 mph 7.0 mph 66% 0.00 in 0 W/m2
23:34 40.2 °F 29.7 °F 30.13 in ESE 4.0 mph 4.0 mph 66% 0.00 in 0 W/m2
23:39 40.2 °F 30.1 °F 30.14 in South 3.0 mph 3.0 mph 67% 0.00 in 0 W/m2
23:46 40.2 °F 30.1 °F 30.14 in SSW 3.0 mph 3.0 mph 67% 0.00 in 0 W/m2
23:52 40.4 °F 30.3 °F 30.14 in SSE 3.0 mph 4.0 mph 67% 0.00 in 0 W/m2
23:58 40.4 °F 30.3 °F 30.14 in South 3.0 mph 4.0 mph 67% 0.00 in 0 W/m2
Country Meadow, Clay, NY, USA
Compliments of Weather Underground - 2 mb